Jarvisburg, North Carolina
Current Conditions -  °F | °C
As of 12:15 PM on Thursday 18 Dec 2014 (Local Time) from KONX Reporting Station
Clear Clear  
Wind Chill:   Ceiling: Unl
Heat Index:   Visibility: 10mi
Dew Point: -5°   Wind: 7mph
Humidity: 42%   Direction: 320°NW
Pressure: 30.12"   Gusts: NA
Location:  36.2°N, 75.87°W
Report Text: KONX 181715Z AUTO 32006KT 10SM CLR 08/M04 A3012 RMK AO2 T00791045
Loading
Personal Weather Stations






























Interactive Weather Map New forecast layout! Learn more

10-Day Weather Forecast

Advertisements
Track Severe Weather on mobile